Flight Track Log - Related Links

Times and Time Zones

All times are in EDT time to prevent confusion due to time zone crossing. See the N111FK flight status page for this flight to view local times or setup timezone preferences in your user account.

Time Position Orientation Groundspeed Altitude Reporting Facility
EDT Latitude Longitude Course Direction KTS MPH feet Rate Location/Type
Tue 09:15:22 PM 37.6500 -122.4500 113° Southeast 220 253 3,400  Level Northern Cal TRACON
Tue 09:16:22 PM 37.6667 -122.5333 284° West 263 303 7,000 3,550 Climbing Northern Cal TRACON
Tue 09:17:22 PM 37.6000 -122.5500 191° South 310 357 10,500 3,526 Climbing Northern Cal TRACON
Tue 09:17:59 PM 37.5556 -122.5183 151° Southeast 303 349 12,700 3,000 Climbing Oakland Center
Tue 09:19:00 PM 37.4983 -122.4367 131° Southeast 323 372 15,400 2,557 Climbing Oakland Center
Tue 09:20:00 PM 37.4167 -122.3167 113° Southeast  Level FlightAware Approximate
Tue 09:20:01 PM 37.4717 -122.3161 106° East 352 405 17,900  Level Oakland Center
Tue 09:21:02 PM 37.4428 -122.1869 106° East 376 433 20,200 2,164 Climbing Oakland Center
Tue 09:22:03 PM 37.4114 -122.0503 106° East 401 461 22,300 2,000 Climbing Oakland Center
Tue 09:23:05 PM 37.3800 -121.9081 105° East 417 480 24,300 2,000 Climbing Oakland Center
Tue 09:24:06 PM 37.3469 -121.7644 106° East 425 489 26,400 1,918 Climbing Oakland Center
Tue 09:25:07 PM 37.3142 -121.6194 106° East 431 496 28,200 1,672 Climbing Oakland Center
Tue 09:26:08 PM 37.2806 -121.4700 106° East 439 505 29,800 1,366 Climbing Oakland Center
Tue 09:27:10 PM 37.2381 -121.2903 106° East 446 513 31,000 585 Climbing Oakland Center
Tue 09:28:11 PM 37.2003 -121.1322 107° East 462 532 31,000 639 Level Oakland Center
Tue 09:29:12 PM 37.1614 -120.9661 106° East 486 559 32,300 984 Climbing Oakland Center
Tue 09:30:13 PM 37.1214 -120.7994 107° East 497 572 33,000 341 Climbing Oakland Center
Tue 09:31:15 PM 37.0836 -120.6294 106° East 515 593 33,000  Level Oakland Center
Tue 09:32:16 PM 37.0397 -120.4617 108° East 518 596 33,000  Level Oakland Center
Tue 09:33:17 PM 36.9994 -120.2908 106° East 522 601 33,000  Level Oakland Center
Tue 09:34:18 PM 36.9731 -120.1175 101° East 511 588 33,000  Level Oakland Center
Tue 09:35:20 PM 36.9864 -119.9567 84° East 463 533 33,000  Level Oakland Center
Tue 09:36:21 PM 37.0325 -119.7753 72° East 456 525 33,000  Level Oakland Center
Tue 09:37:22 PM 37.0706 -119.6228 73° East 459 528 33,000  Level Oakland Center
Tue 09:38:23 PM 37.1097 -119.4700 72° East 461 531 33,000  Level Oakland Center
Tue 09:39:25 PM 37.1467 -119.3183 73° East 455 524 33,000  Level Oakland Center
Tue 09:40:26 PM 37.1833 -119.1692 73° East 449 517 33,000  Level Oakland Center
Tue 09:41:27 PM 37.2217 -119.0167 72° East 458 527 33,000  Level Oakland Center
Tue 09:42:28 PM 37.2594 -118.8622 73° East 463 533 33,000  Level Oakland Center
Tue 09:43:30 PM 37.2956 -118.7044 74° East 469 540 33,000  Level Oakland Center
Tue 09:44:31 PM 37.3342 -118.5494 73° East 476 548 33,000  Level Oakland Center
Tue 09:45:32 PM 37.3767 -118.3592 74° East 472 543 33,000  Level Oakland Center
Tue 09:46:33 PM 37.3864 -118.1956 86° East 466 536 33,000  Level Oakland Center
Tue 09:47:34 PM 37.3942 -118.0308 87° East 473 544 33,000  Level Oakland Center
Tue 09:48:35 PM 37.4025 -117.8706 86° East 467 537 33,000  Level Oakland Center
Tue 09:49:36 PM 37.4103 -117.7117 86° East 460 529 33,000  Level Oakland Center
Tue 09:50:37 PM 37.4181 -117.5492 87° East 466 536 33,000  Level Oakland Center
Tue 09:51:38 PM 37.4131 -117.3867 92° East 475 547 33,000  Level Oakland Center
Tue 09:52:40 PM 37.3622 -117.2436 114° Southeast 459 528 33,000  Level Oakland Center
Tue 09:53:41 PM 37.2736 -117.1436 138° Southeast 440 506 33,000  Level Oakland Center
Tue 09:54:23 PM 37.1944 -117.0761 146° Southeast 433 498 33,000  Level Los Angeles Center
Tue 09:55:24 PM 37.0936 -116.9922 146° Southeast 435 501 33,000 -150 Level Los Angeles Center
Tue 09:55:43 PM 37.0717 -116.9761 150° Southeast 436 502 32,800 -1,425 Descending Oakland Center
Tue 09:56:44 PM 36.9553 -116.8775 146° Southeast 424 488 31,100 -1,486 Descending Oakland Center
Tue 09:57:28 PM 36.8975 -116.8269 145° Southeast 423 487 30,200 -1,429 Descending Los Angeles Center
Tue 09:58:29 PM 36.8036 -116.7481 146° Southeast 412 474 28,600 -1,707 Descending Los Angeles Center
Tue 09:59:31 PM 36.7267 -116.6419 132° Southeast 411 473 26,700 -1,839 Descending Los Angeles Center
Tue 10:00:33 PM 36.6375 -116.5144 131° Southeast 408 470 24,800 -1,500 Descending Los Angeles Center
Tue 10:01:35 PM 36.5658 -116.4117 131° Southeast 397 457 23,600 -1,220 Descending Los Angeles Center
Tue 10:02:36 PM 36.5019 -116.3208 131° Southeast 388 447 22,300 -1,463 Descending Los Angeles Center
Tue 10:03:38 PM 36.4228 -116.2075 131° Southeast 377 434 20,600 -1,415 Descending Los Angeles Center
Tue 10:04:39 PM 36.3647 -116.1275 132° Southeast 371 427 19,400 -1,636 Descending Los Angeles Center
Tue 10:04:55 PM 36.3303 -116.0892 138° Southeast 369 425 18,500 -2,516 Descending Los Angeles Center
Tue 10:05:41 PM 36.2858 -116.0161 127° Southeast 351 404 16,800 -2,164 Descending Los Angeles Center
Tue 10:05:56 PM 36.2686 -115.9997 143° Southeast 346 398 16,300 -774 Descending Los Angeles Center
Tue 10:06:43 PM 36.2258 -115.9328 128° Southeast 319 367 16,000 -448 Descending Los Angeles Center
Tue 10:07:03 PM 36.2042 -115.9086 138° Southeast 317 365 15,800 -1,452 Descending Los Angeles Center
Tue 10:07:45 PM 36.1781 -115.8322 113° Southeast 324 373 14,500 -1,500 Descending Los Angeles Center
Tue 10:08:03 PM 36.1689 -115.8028 111° Southeast 313 360 14,300 -492 Descending Los Angeles Center
Tue 10:08:46 PM 36.1472 -115.7336 111° Southeast 312 359 14,000 -295 Descending Los Angeles Center
Tue 10:09:04 PM 36.1358 -115.7072 118° Southeast 307 353 14,000  Level Los Angeles Center
Tue 10:09:48 PM 36.1158 -115.6381 110° East 303 349 14,000 -197 Level Los Angeles Center
Tue 10:10:05 PM 36.1056 -115.6053 111° Southeast 305 351 13,800 -968 Descending Los Angeles Center
Tue 10:10:50 PM 36.0833 -115.5375 112° Southeast 310 357 13,000 -1,180 Descending Los Angeles Center
Tue 10:11:06 PM 36.0736 -115.5067 111° Southeast 310 357 12,600 -1,082 Descending Los Angeles Center
Tue 10:11:51 PM 36.0531 -115.4436 112° Southeast 302 348 11,900 -1,082 Descending Los Angeles Center
Tue 10:12:07 PM 36.0433 -115.4156 113° Southeast 279 321 11,500 -1,065 Descending Los Angeles Center
Tue 10:12:53 PM 36.0278 -115.3556 108° East 283 326 10,800 -1,279 Descending Los Angeles Center
Tue 10:13:08 PM 36.0269 -115.3200 92° East 283 326 10,200 -1,161 Descending Los Angeles Center
Tue 10:13:55 PM 36.0233 -115.2611 94° East 277 319 9,600 -1,156 Descending Los Angeles Center
Tue 10:14:57 PM 36.0153 -115.1494 95° East 275 316 8,100 -780 Descending Los Angeles Center
Tue 10:15:58 PM 36.0139 -115.0714 91° East 246 283 8,000 -677 Descending Los Angeles Center
Tue 10:17:01 PM 36.0689 -115.0353 28° Northeast 231 266 6,700 -1,125 Descending Los Angeles Center
Tue 10:18:06 PM 36.1325 -115.0297 North 186 214 5,600 -1,008 Descending Los Angeles Center
Tue 10:19:06 PM 36.1472 -115.0781 291° West 152 175 4,600 -1,087 Descending Los Angeles Center
Tue 10:20:13 PM 36.1408 -115.1283 261° West 147 169 3,300 -1,078 Descending Los Angeles Center
Tue 10:21:14 PM 36.1053 -115.1533 210° Southwest 134 154 2,300 -984 Descending Los Angeles Center
Tue 10:23:00 PM 36.0801 -115.1523 270° West  Level Estimated

Login

Don't have an account? Register now (free) for customized features, flight alerts, and more!